createdAt,value
2019-06-15T00:00:09.246Z,90.32
2019-06-15T00:01:09.007Z,90.41
2019-06-15T00:02:09.282Z,91.05
2019-06-15T00:03:09.312Z,90.8
2019-06-15T00:04:09.332Z,90.9
2019-06-15T00:05:09.360Z,90.61
2019-06-15T00:06:09.382Z,91.33
2019-06-15T00:07:09.416Z,91.43
2019-06-15T00:08:09.185Z,91.24
2019-06-15T00:09:09.471Z,92.21
2019-06-15T00:10:09.482Z,92.01
2019-06-15T00:11:09.508Z,92.21
2019-06-15T00:12:09.551Z,92.11
2019-06-15T00:13:09.309Z,92.3
2019-06-15T00:14:09.583Z,92.3
2019-06-15T00:15:09.611Z,92.79
2019-06-15T00:16:09.633Z,92.69
2019-06-15T00:17:09.585Z,92.98
2019-06-15T00:18:09.435Z,92.79
2019-06-15T00:19:09.707Z,93.08
2019-06-15T00:20:09.734Z,92.88
2019-06-15T00:21:09.759Z,92.69
2019-06-15T00:22:09.787Z,93.17
2019-06-15T00:23:09.567Z,93.27
2019-06-15T00:24:09.836Z,93.46
2019-06-15T00:25:09.860Z,93.95
2019-06-15T00:26:09.886Z,93.85
2019-06-15T00:27:09.920Z,93.75
2019-06-15T00:29:09.959Z,93.95
2019-06-15T00:30:09.995Z,93.95
2019-06-15T00:31:24.691Z,94.04
2019-06-15T00:32:10.036Z,94.14
2019-06-15T00:33:10.097Z,94.72
2019-06-15T00:34:10.086Z,94.72
2019-06-15T00:35:10.126Z,94.72
2019-06-15T00:36:10.136Z,94.24
2019-06-15T00:37:10.161Z,94.04
2019-06-15T00:38:09.937Z,94.43
2019-06-15T00:39:09.974Z,95.01
2019-06-15T00:40:10.238Z,94.72
2019-06-15T00:43:10.070Z,94.96
2019-06-15T00:44:10.343Z,95.01
2019-06-15T00:45:10.361Z,94.82
2019-06-15T00:46:10.394Z,94.82
2019-06-15T00:47:25.077Z,95.01
2019-06-15T00:48:10.436Z,95.2
2019-06-15T00:49:10.461Z,95.3
2019-06-15T00:50:10.487Z,94.82
2019-06-15T00:51:10.512Z,94.72
2019-06-15T00:52:10.542Z,94.91
2019-06-15T00:53:10.562Z,95.4
2019-06-15T00:54:10.598Z,95.4
2019-06-15T00:55:10.754Z,95.35
2019-06-15T00:57:10.669Z,95.49
2019-06-15T00:59:10.720Z,95.45
2019-06-15T01:00:10.809Z,95.59
2019-06-15T01:01:10.773Z,95.68
2019-06-15T01:02:10.788Z,95.78
2019-06-15T01:03:25.478Z,95.68
2019-06-15T01:04:10.837Z,95.54
2019-06-15T01:05:10.868Z,96.17
2019-06-15T01:06:10.914Z,95.73
2019-06-15T01:07:10.912Z,96.75
2019-06-15T01:08:10.960Z,96.17
2019-06-15T01:09:10.964Z,96.12
2019-06-15T01:10:10.991Z,96.12
2019-06-15T01:11:11.033Z,96.31
2019-06-15T01:12:11.038Z,96.46
2019-06-15T01:13:11.078Z,96.51
2019-06-15T01:14:11.089Z,96.31
2019-06-15T01:15:11.112Z,96.8
2019-06-15T01:16:11.144Z,96.41
2019-06-15T01:17:11.171Z,97.19
2019-06-15T01:18:11.193Z,97.28
2019-06-15T01:19:25.879Z,96.99
2019-06-15T01:20:11.239Z,96.8
2019-06-15T01:21:11.278Z,97.38
2019-06-15T01:22:11.291Z,96.99
2019-06-15T01:23:11.313Z,97.28
2019-06-15T01:24:11.093Z,97.19
2019-06-15T01:25:11.365Z,97.19
2019-06-15T01:26:11.389Z,97.09
2019-06-15T01:27:11.414Z,96.99
2019-06-15T01:28:11.438Z,97.38
2019-06-15T01:29:11.469Z,97.19
2019-06-15T01:30:11.583Z,97.38
2019-06-15T01:31:11.520Z,97.19
2019-06-15T01:32:11.568Z,97.67
2019-06-15T01:33:11.566Z,97.67
2019-06-15T01:34:26.256Z,97.38
2019-06-15T01:35:11.614Z,97.19
2019-06-15T01:36:11.647Z,97.96
2019-06-15T01:37:11.676Z,97.57
2019-06-15T01:38:11.786Z,97.47
2019-06-15T01:39:11.714Z,97.19
2019-06-15T01:40:11.747Z,97.38
2019-06-15T01:41:11.763Z,97.86
2019-06-15T01:42:11.795Z,97.96
2019-06-15T01:44:11.883Z,98.15
2019-06-15T01:45:11.872Z,97.38
2019-06-15T01:47:11.923Z,97.91
2019-06-15T01:48:11.974Z,97.67
2019-06-15T01:49:11.966Z,97.57
2019-06-15T01:50:11.747Z,97.67
2019-06-15T01:52:12.040Z,97.77
2019-06-15T01:53:12.083Z,97.47
2019-06-15T01:54:12.094Z,97.47
2019-06-15T01:55:22.856Z,97.67
2019-06-15T01:57:12.167Z,97.57
2019-06-15T01:58:12.194Z,98.35
2019-06-15T01:59:12.214Z,97.86
2019-06-15T02:00:12.247Z,97.96
2019-06-15T02:01:12.269Z,97.77
2019-06-15T02:03:12.317Z,98.15
2019-06-15T02:04:12.398Z,97.77
2019-06-15T02:05:12.372Z,98.15
2019-06-15T02:06:27.059Z,97.77
2019-06-15T02:07:12.416Z,97.86
2019-06-15T02:08:12.191Z,98.05
2019-06-15T02:09:12.469Z,98.44
2019-06-15T02:10:12.488Z,98.25
2019-06-15T02:11:12.519Z,98.63
2019-06-15T02:12:12.540Z,98.35
2019-06-15T02:13:12.594Z,98.15
2019-06-15T02:14:12.588Z,98.44
2019-06-15T02:15:12.617Z,98.05
2019-06-15T02:16:12.638Z,98.44
2019-06-15T02:20:12.742Z,98.54
2019-06-15T02:21:12.765Z,98.54
2019-06-15T02:22:27.452Z,98.44
2019-06-15T02:23:12.566Z,99.11
2019-06-15T02:24:12.851Z,98.54
2019-06-15T02:25:12.861Z,98.73
2019-06-15T02:26:12.895Z,98.73
2019-06-15T02:27:12.677Z,98.49
2019-06-15T02:28:12.938Z,98.49
2019-06-15T02:29:12.972Z,98.2
2019-06-15T02:30:12.990Z,97.72
2019-06-15T02:31:13.010Z,97.81
2019-06-15T02:32:13.040Z,97.96
2019-06-15T02:33:13.067Z,97.96
2019-06-15T02:34:13.104Z,98.15
2019-06-15T02:35:13.111Z,97.86
2019-06-15T02:36:13.139Z,98.25
2019-06-15T02:37:13.176Z,97.67
2019-06-15T02:38:27.850Z,97.77
2019-06-15T02:39:13.219Z,97.09
2019-06-15T02:40:13.240Z,97.77
2019-06-15T02:41:13.282Z,95.45
2019-06-15T02:42:13.291Z,95.31
2019-06-15T02:43:13.387Z,95.59
2019-06-15T02:44:13.334Z,96.27
2019-06-15T02:45:13.366Z,94.63
2019-06-15T02:46:13.455Z,93.28
2019-06-15T02:47:13.413Z,93.37
2019-06-15T02:48:13.439Z,93.76
2019-06-15T02:50:13.484Z,92.27
2019-06-15T02:51:13.513Z,91.02
2019-06-15T02:52:13.537Z,90.72
2019-06-15T02:53:13.567Z,90.72
2019-06-15T02:54:28.246Z,91.6
2019-06-15T02:55:13.610Z,90.82
2019-06-15T02:56:13.646Z,89.95
2019-06-15T02:57:13.659Z,88.99
2019-06-15T02:58:13.680Z,88.46
2019-06-15T02:59:13.705Z,88.27
2019-06-15T03:00:13.728Z,89.33
2019-06-15T03:01:13.756Z,87.6
2019-06-15T03:02:13.803Z,87.02
2019-06-15T03:03:13.811Z,89.23
2019-06-15T03:04:13.947Z,87.6
2019-06-15T03:05:13.856Z,87.02
2019-06-15T03:06:13.878Z,87.4
2019-06-15T03:07:13.723Z,85.86
2019-06-15T03:08:13.926Z,85.28
2019-06-15T03:09:28.615Z,86.82
2019-06-15T03:10:14.003Z,87.3
2019-06-15T03:11:13.999Z,86.54
2019-06-15T03:12:14.028Z,84.12
2019-06-15T03:13:14.049Z,85.09
2019-06-15T03:14:14.074Z,84.8
2019-06-15T03:15:14.097Z,84.03
2019-06-15T03:16:14.122Z,80.46
2019-06-15T03:17:14.150Z,80.08
2019-06-15T03:18:14.171Z,80.76
2019-06-15T03:19:14.196Z,79.17
2019-06-15T03:20:14.219Z,78.79
2019-06-15T03:21:14.247Z,77.83
2019-06-15T03:22:14.269Z,75.8
2019-06-15T03:23:14.293Z,77.73
2019-06-15T03:24:14.324Z,75.71
2019-06-15T03:25:14.348Z,76.09
2019-06-15T03:26:14.372Z,77.73
2019-06-15T03:27:14.393Z,77.92
2019-06-15T03:28:14.415Z,79.17
2019-06-15T03:29:14.440Z,78.15
2019-06-15T03:30:14.470Z,79.85
2019-06-15T03:32:14.542Z,82.01
2019-06-15T03:33:14.548Z,83.36
2019-06-15T03:34:14.566Z,84.32
2019-06-15T03:36:14.610Z,85.47
2019-06-15T03:37:14.635Z,85.19
2019-06-15T03:38:14.661Z,86.44
2019-06-15T03:39:14.684Z,87.3
2019-06-15T03:40:14.708Z,88.37
2019-06-15T03:41:29.396Z,88.08
2019-06-15T03:42:14.764Z,87.7
2019-06-15T03:44:14.835Z,89.37
2019-06-15T03:45:14.833Z,88.51
2019-06-15T03:46:14.859Z,90.44
2019-06-15T03:47:14.884Z,91.4
2019-06-15T03:48:14.908Z,91.78
2019-06-15T03:49:14.932Z,92.75
2019-06-15T03:51:14.974Z,93.33
2019-06-15T03:52:15.009Z,93.13
2019-06-15T03:53:15.023Z,93.57
2019-06-15T03:54:15.050Z,94.05
2019-06-15T03:55:15.101Z,94.24
2019-06-15T03:56:24.342Z,94.53
2019-06-15T03:57:29.787Z,94.82
2019-06-15T03:58:15.153Z,94.43
2019-06-15T03:59:15.191Z,95.11
2019-06-15T04:00:15.195Z,94.92
2019-06-15T04:01:15.221Z,96.17
2019-06-15T04:02:15.243Z,95.06
2019-06-15T04:03:15.272Z,95.45
2019-06-15T04:04:15.297Z,95.74
2019-06-15T04:05:15.318Z,95.64
2019-06-15T04:06:15.348Z,95.64
2019-06-15T04:07:15.367Z,95.31
2019-06-15T04:08:15.396Z,95.35
2019-06-15T04:09:15.418Z,95.25
2019-06-15T04:11:15.471Z,94.68
2019-06-15T04:12:15.491Z,95.16
2019-06-15T04:13:30.183Z,94.68
2019-06-15T04:14:15.540Z,94.87
2019-06-15T04:15:15.574Z,95.25
2019-06-15T04:16:15.593Z,94.87
2019-06-15T04:17:15.643Z,94.58
2019-06-15T04:18:15.390Z,94.58
2019-06-15T04:19:15.670Z,94.29
2019-06-15T04:20:15.688Z,94.48
2019-06-15T04:21:15.734Z,94.58
2019-06-15T04:22:15.735Z,94.38
2019-06-15T04:23:15.763Z,94.87
2019-06-15T04:24:15.782Z,94.29
2019-06-15T04:25:15.806Z,95.06
2019-06-15T04:26:15.830Z,94.48
2019-06-15T04:27:15.866Z,94.29
2019-06-15T04:28:15.881Z,94.58
2019-06-15T04:29:30.570Z,93.9
2019-06-15T04:30:15.940Z,94.38
2019-06-15T04:31:15.955Z,93.9
2019-06-15T04:32:15.982Z,94.38
2019-06-15T04:33:16.001Z,94.1
2019-06-15T04:34:16.035Z,93.95
2019-06-15T04:35:16.055Z,94.29
2019-06-15T04:36:16.099Z,94.43
2019-06-15T04:37:16.116Z,94.43
2019-06-15T04:38:16.130Z,94.72
2019-06-15T04:39:16.149Z,94.72
2019-06-15T04:41:16.202Z,94.62
2019-06-15T04:42:16.233Z,95.78
2019-06-15T04:43:16.281Z,95.88
2019-06-15T04:44:30.939Z,96.17
2019-06-15T04:45:16.301Z,96.17
2019-06-15T04:46:16.323Z,96.56
2019-06-15T04:47:16.352Z,96.51
2019-06-15T04:48:16.374Z,97.38
2019-06-15T04:49:16.400Z,96.99
2019-06-15T04:50:16.421Z,96.8
2019-06-15T04:51:16.452Z,96.99
2019-06-15T04:52:16.471Z,97.38
2019-06-15T04:53:17.352Z,97.77
2019-06-15T04:54:16.522Z,97.57
2019-06-15T04:55:16.548Z,97.23
2019-06-15T04:56:16.573Z,98.2
2019-06-15T04:57:16.596Z,97.62
2019-06-15T04:58:16.638Z,98.49
2019-06-15T04:59:16.645Z,98
2019-06-15T05:01:16.701Z,98.78
2019-06-15T05:02:16.720Z,98.39
2019-06-15T05:03:16.743Z,98.49
2019-06-15T05:04:16.766Z,98.39
2019-06-15T05:05:16.796Z,99.07
2019-06-15T05:06:16.818Z,98.88
2019-06-15T05:07:16.844Z,98.54
2019-06-15T05:08:16.873Z,99.21
2019-06-15T05:09:16.896Z,99.31
2019-06-15T05:10:16.917Z,99.79
2019-06-15T05:11:16.949Z,99.41
2019-06-15T05:12:16.974Z,99.65
2019-06-15T05:13:16.992Z,99.46
2019-06-15T05:14:17.020Z,99.65
2019-06-15T05:15:17.148Z,99.31
2019-06-15T05:16:31.732Z,99.84
2019-06-15T05:17:17.155Z,99.46
2019-06-15T05:18:17.163Z,99.84
2019-06-15T05:19:17.159Z,99.99
2019-06-15T05:20:17.167Z,99.85
2019-06-15T05:21:17.200Z,99.99
2019-06-15T05:22:17.243Z,98.97
2019-06-15T05:23:17.002Z,98.63
2019-06-15T05:24:17.268Z,98.05
2019-06-15T05:25:17.300Z,97.23
2019-06-15T05:26:17.326Z,96.69
2019-06-15T05:27:17.351Z,95.38
2019-06-15T05:28:17.382Z,94.17
2019-06-15T05:29:17.406Z,93.68
2019-06-15T05:30:17.428Z,93.92
2019-06-15T05:31:17.456Z,93.24
2019-06-15T05:32:32.154Z,91.58
2019-06-15T05:33:17.516Z,91.05
2019-06-15T05:34:17.537Z,88.76
2019-06-15T05:35:17.622Z,87.2
2019-06-15T05:36:17.599Z,86.07
2019-06-15T05:37:17.624Z,85.19
2019-06-15T05:38:17.652Z,86.36
2019-06-15T05:39:17.690Z,85.64
2019-06-15T05:40:17.709Z,84.22
2019-06-15T05:41:18.309Z,83.83
2019-06-15T05:42:17.769Z,85.49
2019-06-15T05:43:17.796Z,86.91
2019-06-15T05:46:18.181Z,88.52
2019-06-15T05:47:17.928Z,89.69
2019-06-15T05:48:32.610Z,88.23
2019-06-15T05:49:17.973Z,87.54
2019-06-15T05:50:18.002Z,86.77
2019-06-15T05:51:18.036Z,87.2
2019-06-15T05:52:18.084Z,88.62
2019-06-15T05:53:18.092Z,88.96
2019-06-15T05:55:18.152Z,90.95
2019-06-15T05:56:18.175Z,91.54
2019-06-15T05:57:24.189Z,90.77
2019-06-15T05:58:17.990Z,88.96
2019-06-15T05:59:18.262Z,87.29
2019-06-15T06:00:18.295Z,82.67
2019-06-15T06:01:18.329Z,81.38
2019-06-15T06:02:21.023Z,79.66
2019-06-15T06:03:18.134Z,79.37
2019-06-15T06:04:33.079Z,79.14
2019-06-15T06:05:18.447Z,78.94
2019-06-15T06:06:18.473Z,77.72
2019-06-15T06:07:18.503Z,75.86
2019-06-15T06:09:18.563Z,73.79
2019-06-15T06:10:18.602Z,74.24
2019-06-15T06:11:18.633Z,74.15
2019-06-15T06:12:18.657Z,72.72
2019-06-15T06:13:18.688Z,70.9
2019-06-15T06:15:18.757Z,69.46
2019-06-15T06:16:18.788Z,68.88
2019-06-15T06:17:18.815Z,68.88
2019-06-15T06:18:18.847Z,68.98
2019-06-15T06:19:33.546Z,66.83
2019-06-15T06:20:18.914Z,67.25
2019-06-15T06:21:18.943Z,67.05
2019-06-15T06:22:18.979Z,66.56
2019-06-15T06:23:19.008Z,67.44
2019-06-15T06:24:19.059Z,66.66
2019-06-15T06:25:19.075Z,65.98
2019-06-15T06:26:19.103Z,66.08
2019-06-15T06:27:19.147Z,70.73
2019-06-15T06:28:19.168Z,74.15
2019-06-15T06:30:19.244Z,74.6
2019-06-15T06:32:19.299Z,71.35
2019-06-15T06:33:19.331Z,71.84
2019-06-15T06:34:19.361Z,70.37
2019-06-15T06:35:19.411Z,68.68
2019-06-15T06:36:19.433Z,66.27
2019-06-15T06:37:19.457Z,63.96
2019-06-15T06:38:19.491Z,66.86
2019-06-15T06:39:19.526Z,65.98
2019-06-15T06:40:19.552Z,65.2
2019-06-15T06:41:19.593Z,63.31
2019-06-15T06:42:19.639Z,63.53
2019-06-15T06:43:19.653Z,63.99
2019-06-15T06:44:19.754Z,65.06
2019-06-15T06:45:19.717Z,66.56
2019-06-15T06:46:19.754Z,67.61
2019-06-15T06:48:19.814Z,65.85
2019-06-15T06:49:19.851Z,64.9
2019-06-15T06:50:19.912Z,63.76
2019-06-15T06:51:34.581Z,61.74
2019-06-15T06:52:19.954Z,61.21
2019-06-15T06:53:19.978Z,59.58
2019-06-15T06:54:20.015Z,60.26
2019-06-15T06:55:20.157Z,60.16
2019-06-15T06:56:20.088Z,59.97
2019-06-15T06:57:20.116Z,60.65
2019-06-15T06:58:19.898Z,60.82
2019-06-15T06:59:20.181Z,60.82
2019-06-15T07:00:19.968Z,61.11
2019-06-15T07:01:20.247Z,62.26
2019-06-15T07:02:20.282Z,61.77
2019-06-15T07:03:20.352Z,62.55
2019-06-15T07:05:20.380Z,60.92
2019-06-15T07:06:20.410Z,60.42
2019-06-15T07:07:35.113Z,59.31
2019-06-15T07:08:20.476Z,58.72
2019-06-15T07:09:20.532Z,57.08
2019-06-15T07:10:20.552Z,57.31
2019-06-15T07:11:20.579Z,58.78
2019-06-15T07:12:20.634Z,60.55
2019-06-15T07:13:20.646Z,62.09
2019-06-15T07:14:20.707Z,63.21
2019-06-15T07:15:20.746Z,64.06
2019-06-15T07:16:20.753Z,64.64
2019-06-15T07:17:20.555Z,64.06
2019-06-15T07:18:20.813Z,64.09
2019-06-15T07:21:20.915Z,66.6
2019-06-15T07:22:20.940Z,68.03
2019-06-15T07:23:35.639Z,67.83
2019-06-15T07:24:21.011Z,67.25
2019-06-15T07:25:21.039Z,66.24
2019-06-15T07:26:21.073Z,65.85
2019-06-15T07:27:21.104Z,64.67
2019-06-15T07:28:21.134Z,64.18
2019-06-15T07:29:21.165Z,65.06
2019-06-15T07:30:21.223Z,65.26
2019-06-15T07:31:21.240Z,66.17
2019-06-15T07:32:21.283Z,65.33
2019-06-15T07:33:21.298Z,65.03
2019-06-15T07:34:21.341Z,64.97
2019-06-15T07:35:21.369Z,65.75
2019-06-15T07:36:21.389Z,65.33
2019-06-15T07:37:21.428Z,64.94
2019-06-15T07:38:21.452Z,64.38
2019-06-15T07:39:36.151Z,64.77
2019-06-15T07:40:21.514Z,64.28
2019-06-15T07:41:21.549Z,66.34
2019-06-15T07:42:21.597Z,65.95
2019-06-15T07:43:21.616Z,64.77
2019-06-15T07:44:21.653Z,65.65
2019-06-15T07:45:21.683Z,67.09
2019-06-15T07:46:21.704Z,65.62
2019-06-15T07:47:21.762Z,65.91
2019-06-15T07:48:21.769Z,67.74
2019-06-15T07:50:21.837Z,69.07
2019-06-15T07:51:21.872Z,69.56
2019-06-15T07:52:21.898Z,69.85
2019-06-15T07:53:21.928Z,70.02
2019-06-15T07:54:36.622Z,69.82
2019-06-15T07:55:21.998Z,69.37
2019-06-15T07:56:22.059Z,68.59
2019-06-15T07:57:22.051Z,67.74
2019-06-15T07:58:27.166Z,66.3
2019-06-15T07:59:22.133Z,66.11
2019-06-15T08:00:22.160Z,62.06
2019-06-15T08:01:22.171Z,59.61
2019-06-15T08:02:22.203Z,57.4
2019-06-15T08:03:22.020Z,56.65
2019-06-15T08:04:22.265Z,55.99
2019-06-15T08:06:22.335Z,55.72
2019-06-15T08:08:22.143Z,53.05
2019-06-15T08:09:22.435Z,52.16
2019-06-15T08:10:22.458Z,51.5
2019-06-15T08:11:22.490Z,51.18
2019-06-15T08:12:22.524Z,51.47
2019-06-15T08:13:22.557Z,52.55
2019-06-15T08:14:22.636Z,51.57
2019-06-15T08:15:22.662Z,51.4
2019-06-15T08:16:22.656Z,51.23
2019-06-15T08:17:22.691Z,51.32
2019-06-15T08:18:22.722Z,52.95
2019-06-15T08:19:22.755Z,52.62
2019-06-15T08:20:22.542Z,52.14
2019-06-15T08:21:22.822Z,52.03
2019-06-15T08:22:22.874Z,52.14
2019-06-15T08:23:22.651Z,52.33
2019-06-15T08:24:22.925Z,53.58
2019-06-15T08:25:22.958Z,53.85
2019-06-15T08:26:37.658Z,54.64
2019-06-15T08:27:23.087Z,55.57
2019-06-15T08:28:22.815Z,56.72
2019-06-15T08:29:23.094Z,57.01
2019-06-15T08:30:23.122Z,57.77
2019-06-15T08:31:23.166Z,56.03
2019-06-15T08:32:23.240Z,54.32
2019-06-15T08:33:23.225Z,53.09
2019-06-15T08:34:23.256Z,53.09
2019-06-15T08:35:23.312Z,52.99
2019-06-15T08:36:23.331Z,52.99
2019-06-15T08:37:23.360Z,53.19
2019-06-15T08:38:23.142Z,52.62
2019-06-15T08:39:23.436Z,52.62
2019-06-15T08:40:23.468Z,52.16
2019-06-15T08:41:23.489Z,51.92
2019-06-15T08:42:38.187Z,51.37
2019-06-15T08:43:23.553Z,51.18
2019-06-15T08:44:23.625Z,51.1
2019-06-15T08:45:23.621Z,52.19
2019-06-15T08:46:23.653Z,51.45
2019-06-15T08:47:23.687Z,51.12
2019-06-15T08:48:23.778Z,50.63
2019-06-15T08:49:23.760Z,50.56
2019-06-15T08:50:23.787Z,49.85
2019-06-15T08:51:23.854Z,49.97
2019-06-15T08:52:23.853Z,49.75
2019-06-15T08:53:23.922Z,50.04
2019-06-15T08:54:23.924Z,50.93
2019-06-15T08:56:23.989Z,51.67
2019-06-15T08:57:24.029Z,50.39
2019-06-15T08:58:38.722Z,50.61
2019-06-15T08:59:24.088Z,51
2019-06-15T09:00:24.142Z,52.28
2019-06-15T09:01:24.222Z,49.97
2019-06-15T09:02:24.248Z,50.51
2019-06-15T09:03:24.223Z,49.2
2019-06-15T09:04:24.261Z,49.5
2019-06-15T09:05:24.311Z,49.69
2019-06-15T09:06:24.324Z,49.9
2019-06-15T09:07:24.362Z,48.14
2019-06-15T09:09:24.429Z,48.27
2019-06-15T09:10:24.466Z,47.28
2019-06-15T09:11:24.503Z,47.5
2019-06-15T09:12:27.374Z,47.87
2019-06-15T09:13:24.563Z,48.54
2019-06-15T09:14:39.261Z,47.65
2019-06-15T09:15:24.670Z,47.06
2019-06-15T09:16:28.110Z,47.67
2019-06-15T09:17:24.694Z,47.3
2019-06-15T09:18:24.496Z,47.2
2019-06-15T09:19:24.766Z,47.4
2019-06-15T09:20:24.800Z,45.62
2019-06-15T09:21:24.830Z,46.61
2019-06-15T09:22:24.866Z,45.89
2019-06-15T09:23:24.902Z,45.79
2019-06-15T09:25:24.968Z,46.11
2019-06-15T09:26:25.002Z,46.01
2019-06-15T09:27:25.042Z,47.03
2019-06-15T09:28:25.070Z,45.25
2019-06-15T09:29:39.768Z,46.01
2019-06-15T09:30:25.137Z,46.01
2019-06-15T09:31:25.171Z,47.25
2019-06-15T09:32:25.202Z,47.16
2019-06-15T09:33:25.236Z,45.82
2019-06-15T09:34:25.280Z,45.72
2019-06-15T09:35:25.305Z,47.6
2019-06-15T09:36:25.351Z,46.81
2019-06-15T09:37:25.370Z,45.45
2019-06-15T09:38:25.158Z,46.44
2019-06-15T09:39:25.444Z,45.94
2019-06-15T09:40:25.486Z,44.78
2019-06-15T09:42:25.545Z,44.5
2019-06-15T09:43:25.572Z,46.63
2019-06-15T09:44:25.610Z,46.88
2019-06-15T09:45:25.645Z,46.59
2019-06-15T09:46:25.676Z,46.09
2019-06-15T09:47:25.709Z,45.54
2019-06-15T09:48:25.748Z,46.93
2019-06-15T09:49:25.772Z,47.75
2019-06-15T09:50:25.806Z,49.01
2019-06-15T09:51:25.842Z,49.01
2019-06-15T09:52:25.880Z,47.85
2019-06-15T09:54:27.983Z,48.27
2019-06-15T09:55:25.988Z,46.31
2019-06-15T09:56:26.012Z,47.2
2019-06-15T09:57:26.043Z,48.98
2019-06-15T09:58:25.827Z,47.52
2019-06-15T09:59:28.806Z,45
2019-06-15T10:00:25.916Z,45.81
2019-06-15T10:01:40.841Z,46.78
2019-06-15T10:02:26.207Z,47.2
2019-06-15T10:03:25.993Z,48.44
2019-06-15T10:04:26.299Z,50.02
2019-06-15T10:05:26.308Z,51.25
2019-06-15T10:06:26.353Z,50.24
2019-06-15T10:07:26.376Z,49.77
2019-06-15T10:08:26.161Z,49.87
2019-06-15T10:09:26.441Z,49.99
2019-06-15T10:10:26.476Z,50.66
2019-06-15T10:11:26.510Z,51.2
2019-06-15T10:12:26.593Z,51.03
2019-06-15T10:13:26.609Z,49.57
2019-06-15T10:14:26.620Z,48.91
2019-06-15T10:15:26.640Z,49.13
2019-06-15T10:16:26.669Z,49.03
2019-06-15T10:17:41.379Z,47.06
2019-06-15T10:18:26.737Z,47.97
2019-06-15T10:19:26.780Z,47.77
2019-06-15T10:21:26.839Z,46.91
2019-06-15T10:22:26.870Z,47.62
2019-06-15T10:23:26.921Z,46.85
2019-06-15T10:24:26.942Z,45.57
2019-06-15T10:25:26.988Z,46.97
2019-06-15T10:26:27.003Z,46.97
2019-06-15T10:27:27.041Z,45.79
2019-06-15T10:28:27.071Z,44.72
2019-06-15T10:29:41.125Z,45.21
2019-06-15T10:30:27.131Z,44.42
2019-06-15T10:31:27.167Z,45.76
2019-06-15T10:32:27.208Z,46.95
2019-06-15T10:33:41.922Z,48.27
2019-06-15T10:34:27.266Z,47.18
2019-06-15T10:35:27.304Z,48.78
2019-06-15T10:36:27.334Z,47.1
2019-06-15T10:37:27.365Z,47.2
2019-06-15T10:38:27.437Z,47.08
2019-06-15T10:39:27.433Z,47.97
2019-06-15T10:40:27.463Z,47.85
2019-06-15T10:41:27.507Z,47.75
2019-06-15T10:42:27.679Z,48.24
2019-06-15T10:44:27.600Z,47.82
2019-06-15T10:45:27.631Z,48.98
2019-06-15T10:46:27.662Z,48.49
2019-06-15T10:47:27.710Z,49.38
2019-06-15T10:48:27.729Z,47.92
2019-06-15T10:49:42.523Z,48.91
2019-06-15T10:50:27.794Z,48.41
2019-06-15T10:51:27.828Z,48.98
2019-06-15T10:52:27.862Z,48.88
2019-06-15T10:53:27.893Z,48.32
2019-06-15T10:54:27.927Z,48.88
2019-06-15T10:55:27.959Z,49.08
2019-06-15T10:56:27.993Z,50.46
2019-06-15T10:57:28.068Z,50.76
2019-06-15T10:58:27.810Z,48.98
2019-06-15T11:00:28.130Z,49.97
2019-06-15T11:01:28.159Z,50.73
2019-06-15T11:02:28.195Z,49.95
2019-06-15T11:03:27.973Z,49.28
2019-06-15T11:04:42.922Z,50.07
2019-06-15T11:05:28.293Z,51.12
2019-06-15T11:06:28.353Z,49.26
2019-06-15T11:07:28.354Z,50.51
2019-06-15T11:08:28.149Z,50.88
2019-06-15T11:09:28.419Z,51.86
2019-06-15T11:10:28.457Z,52.23
2019-06-15T11:11:28.483Z,52.23
2019-06-15T11:12:28.519Z,52.45
2019-06-15T11:13:28.303Z,52.53
2019-06-15T11:14:28.585Z,53.61
2019-06-15T11:15:28.619Z,52.62
2019-06-15T11:16:28.651Z,52.53
2019-06-15T11:17:28.682Z,52.43
2019-06-15T11:18:28.463Z,53.22
2019-06-15T11:19:28.753Z,52.23
2019-06-15T11:20:28.775Z,52.72
2019-06-15T11:21:28.861Z,53.64
2019-06-15T11:22:28.839Z,51.18
2019-06-15T11:23:28.870Z,52.26
2019-06-15T11:24:28.904Z,52.45
2019-06-15T11:25:28.934Z,52.36
2019-06-15T11:26:28.973Z,52.78
2019-06-15T11:27:29.007Z,51.3
2019-06-15T11:28:29.029Z,52.58
2019-06-15T11:29:29.060Z,51.5
2019-06-15T11:30:29.097Z,50.83
2019-06-15T11:31:29.128Z,51.23
2019-06-15T11:32:29.161Z,49.75
2019-06-15T11:33:29.198Z,50.42
2019-06-15T11:34:29.231Z,50.63
2019-06-15T11:35:29.251Z,49.52
2019-06-15T11:36:43.952Z,49.55
2019-06-15T11:37:29.319Z,49.26
2019-06-15T11:38:29.348Z,48.96
2019-06-15T11:39:29.381Z,49.85
2019-06-15T11:40:29.447Z,49.16
2019-06-15T11:41:29.444Z,49.85
2019-06-15T11:42:29.476Z,48.49
2019-06-15T11:43:29.533Z,49.38
2019-06-15T11:44:29.544Z,49.28
2019-06-15T11:45:29.575Z,48.79
2019-06-15T11:46:29.604Z,50.38
2019-06-15T11:47:29.636Z,49.97
2019-06-15T11:48:29.670Z,49.67
2019-06-15T11:49:29.747Z,48.98
2019-06-15T11:50:29.742Z,50.66
2019-06-15T11:51:29.776Z,49.38
2019-06-15T11:52:44.465Z,51.05
2019-06-15T11:53:29.846Z,49.28
2019-06-15T11:54:29.867Z,50.73
2019-06-15T11:55:41.578Z,50.85
2019-06-15T11:56:29.927Z,49.77
2019-06-15T11:57:29.973Z,49.2
2019-06-15T11:58:29.997Z,50.78
2019-06-15T11:59:30.023Z,47.94
2019-06-15T12:00:34.112Z,48.56
2019-06-15T12:01:30.088Z,47.77
2019-06-15T12:03:30.161Z,47.79
2019-06-15T12:05:29.970Z,48.27
2019-06-15T12:06:30.262Z,47.47
2019-06-15T12:07:30.283Z,47.18
2019-06-15T12:08:44.981Z,47.67
2019-06-15T12:09:30.347Z,46.96
2019-06-15T12:10:30.378Z,47.16
2019-06-15T12:11:30.411Z,47.55
2019-06-15T12:12:30.444Z,47.35
2019-06-15T12:13:30.490Z,47.33
2019-06-15T12:14:30.516Z,47.72
2019-06-15T12:15:30.549Z,47.6
2019-06-15T12:16:30.581Z,47.8
2019-06-15T12:17:30.395Z,48.88
2019-06-15T12:18:30.638Z,48
2019-06-15T12:19:30.670Z,48.39
2019-06-15T12:20:30.708Z,46.91
2019-06-15T12:21:30.775Z,46.69
2019-06-15T12:22:30.772Z,48.19
2019-06-15T12:23:30.807Z,48
2019-06-15T12:24:45.499Z,47.8
2019-06-15T12:25:30.868Z,46.91
2019-06-15T12:26:30.900Z,46.81
2019-06-15T12:27:30.928Z,48.12
2019-06-15T12:28:30.963Z,48.51
2019-06-15T12:29:30.749Z,46.81
2019-06-15T12:30:45.420Z,48.19
2019-06-15T12:31:31.062Z,47.58
2019-06-15T12:32:31.107Z,48.35
2019-06-15T12:33:31.164Z,48.64
2019-06-15T12:34:31.209Z,48.05
2019-06-15T12:36:31.223Z,45.98
2019-06-15T12:37:31.252Z,45.76
2019-06-15T12:38:31.286Z,45.67
2019-06-15T12:39:45.986Z,44.78
2019-06-15T12:40:31.375Z,45.27
2019-06-15T12:41:31.382Z,46.97
2019-06-15T12:42:31.415Z,45.19
2019-06-15T12:43:31.445Z,44.43
2019-06-15T12:44:31.486Z,44.51
2019-06-15T12:45:31.511Z,44.43
2019-06-15T12:46:31.542Z,45.02
2019-06-15T12:47:31.574Z,44.35
2019-06-15T12:48:31.606Z,44.55
2019-06-15T12:49:31.640Z,44.87
2019-06-15T12:51:31.712Z,44.57
2019-06-15T12:52:31.758Z,45.16
2019-06-15T12:53:31.783Z,46.91
2019-06-15T12:54:31.804Z,46.12
2019-06-15T12:55:31.833Z,46.72
2019-06-15T12:56:31.866Z,46.99
2019-06-15T12:57:31.896Z,47.88
2019-06-15T12:58:31.927Z,47.97
2019-06-15T12:59:31.958Z,48.35
2019-06-15T13:00:31.995Z,49.04
2019-06-15T13:01:32.041Z,48.57
2019-06-15T13:02:32.059Z,48.39
2019-06-15T13:03:32.087Z,48.49
2019-06-15T13:04:32.148Z,47.82
2019-06-15T13:05:32.154Z,46.64
2019-06-15T13:06:32.186Z,47.82
2019-06-15T13:07:32.214Z,47.06
2019-06-15T13:08:32.245Z,46.07
2019-06-15T13:09:32.304Z,45.56
2019-06-15T13:10:32.311Z,45.04
2019-06-15T13:11:47.009Z,45.41
2019-06-15T13:12:32.374Z,45.98
2019-06-15T13:13:32.422Z,45.88
2019-06-15T13:14:32.471Z,46.18
2019-06-15T13:15:32.469Z,46.37
2019-06-15T13:16:41.854Z,45.56
2019-06-15T13:17:32.534Z,45.45
2019-06-15T13:18:32.565Z,45.25
2019-06-15T13:20:32.654Z,46.82
2019-06-15T13:21:32.661Z,46.43
2019-06-15T13:22:32.694Z,45.52
2019-06-15T13:23:32.750Z,45.13
2019-06-15T13:24:32.766Z,44.93
2019-06-15T13:25:32.787Z,44.05
2019-06-15T13:26:32.829Z,45.72
2019-06-15T13:27:47.521Z,46.11
2019-06-15T13:28:32.885Z,45.42
2019-06-15T13:29:32.916Z,45.32
2019-06-15T13:30:32.738Z,45.13
2019-06-15T13:31:32.977Z,45.03
2019-06-15T13:32:33.015Z,45.72
2019-06-15T13:33:33.047Z,45.94
2019-06-15T13:34:33.073Z,44.76
2019-06-15T13:35:33.105Z,46.72
2019-06-15T13:36:33.150Z,46.57
2019-06-15T13:37:44.353Z,44.11
2019-06-15T13:39:33.233Z,43.93
2019-06-15T13:40:33.268Z,44.13
2019-06-15T13:41:33.296Z,45.81
2019-06-15T13:42:33.325Z,45.21
2019-06-15T13:43:48.020Z,45.73
2019-06-15T13:44:33.391Z,44.06